sensor_id;sensor_type;location;lat;lon;timestamp;temperature;humidity
63289;DHT22;49412;48.162;-1.978;2022-07-12T00:01:53;22.70;99.90
63289;DHT22;49412;48.162;-1.978;2022-07-12T00:04:19;22.70;99.90
63289;DHT22;49412;48.162;-1.978;2022-07-12T00:06:45;22.70;99.90
63289;DHT22;49412;48.162;-1.978;2022-07-12T00:09:10;22.70;99.90
63289;DHT22;49412;48.162;-1.978;2022-07-12T00:11:36;22.70;99.90
63289;DHT22;49412;48.162;-1.978;2022-07-12T00:14:02;22.60;99.90
63289;DHT22;49412;48.162;-1.978;2022-07-12T00:16:27;22.50;99.90
63289;DHT22;49412;48.162;-1.978;2022-07-12T00:18:53;22.50;99.90
63289;DHT22;49412;48.162;-1.978;2022-07-12T00:21:19;22.40;99.90
63289;DHT22;49412;48.162;-1.978;2022-07-12T00:23:45;22.40;99.90
63289;DHT22;49412;48.162;-1.978;2022-07-12T00:26:10;22.30;99.90
63289;DHT22;49412;48.162;-1.978;2022-07-12T00:28:36;22.20;99.90
63289;DHT22;49412;48.162;-1.978;2022-07-12T00:31:02;22.10;99.90
63289;DHT22;49412;48.162;-1.978;2022-07-12T00:33:28;22.10;99.90
63289;DHT22;49412;48.162;-1.978;2022-07-12T00:35:54;22.00;99.90
63289;DHT22;49412;48.162;-1.978;2022-07-12T00:38:19;22.00;99.90
63289;DHT22;49412;48.162;-1.978;2022-07-12T00:40:45;22.00;99.90
63289;DHT22;49412;48.162;-1.978;2022-07-12T00:43:10;21.90;99.90
63289;DHT22;49412;48.162;-1.978;2022-07-12T00:45:36;21.90;99.90
63289;DHT22;49412;48.162;-1.978;2022-07-12T00:48:02;21.80;99.90
63289;DHT22;49412;48.162;-1.978;2022-07-12T00:50:27;21.80;99.90
63289;DHT22;49412;48.162;-1.978;2022-07-12T00:52:54;21.60;99.90
63289;DHT22;49412;48.162;-1.978;2022-07-12T00:55:20;21.40;99.90
63289;DHT22;49412;48.162;-1.978;2022-07-12T00:57:46;21.40;99.90
63289;DHT22;49412;48.162;-1.978;2022-07-12T01:00:19;21.40;99.90
63289;DHT22;49412;48.162;-1.978;2022-07-12T01:02:45;21.00;99.90
63289;DHT22;49412;48.162;-1.978;2022-07-12T01:05:12;21.00;99.90
63289;DHT22;49412;48.162;-1.978;2022-07-12T01:07:38;21.20;99.90
63289;DHT22;49412;48.162;-1.978;2022-07-12T01:10:05;21.20;99.90
63289;DHT22;49412;48.162;-1.978;2022-07-12T01:12:30;21.20;99.90
63289;DHT22;49412;48.162;-1.978;2022-07-12T01:14:56;21.30;99.90
63289;DHT22;49412;48.162;-1.978;2022-07-12T01:17:23;21.10;99.90
63289;DHT22;49412;48.162;-1.978;2022-07-12T01:19:49;20.90;99.90
63289;DHT22;49412;48.162;-1.978;2022-07-12T01:22:16;20.80;99.90
63289;DHT22;49412;48.162;-1.978;2022-07-12T01:24:42;20.90;99.90
63289;DHT22;49412;48.162;-1.978;2022-07-12T01:27:08;20.90;99.90
63289;DHT22;49412;48.162;-1.978;2022-07-12T01:29:34;21.00;99.90
63289;DHT22;49412;48.162;-1.978;2022-07-12T01:32:00;21.00;99.90
63289;DHT22;49412;48.162;-1.978;2022-07-12T01:34:45;21.20;99.90
63289;DHT22;49412;48.162;-1.978;2022-07-12T01:37:12;21.20;99.90
63289;DHT22;49412;48.162;-1.978;2022-07-12T01:39:38;21.10;99.90
63289;DHT22;49412;48.162;-1.978;2022-07-12T01:42:04;21.00;99.90
63289;DHT22;49412;48.162;-1.978;2022-07-12T01:44:29;21.00;99.90
63289;DHT22;49412;48.162;-1.978;2022-07-12T01:46:55;20.90;99.90
63289;DHT22;49412;48.162;-1.978;2022-07-12T01:49:20;20.70;99.90
63289;DHT22;49412;48.162;-1.978;2022-07-12T01:51:46;20.20;99.90
63289;DHT22;49412;48.162;-1.978;2022-07-12T01:54:11;20.30;99.90
63289;DHT22;49412;48.162;-1.978;2022-07-12T01:56:37;20.50;99.90
63289;DHT22;49412;48.162;-1.978;2022-07-12T01:59:02;20.50;99.90
63289;DHT22;49412;48.162;-1.978;2022-07-12T02:01:28;20.50;99.90
63289;DHT22;49412;48.162;-1.978;2022-07-12T02:03:54;20.50;99.90
63289;DHT22;49412;48.162;-1.978;2022-07-12T02:06:19;20.60;99.90
63289;DHT22;49412;48.162;-1.978;2022-07-12T02:08:45;20.50;99.90
63289;DHT22;49412;48.162;-1.978;2022-07-12T02:11:11;20.30;99.90
63289;DHT22;49412;48.162;-1.978;2022-07-12T02:13:37;20.30;99.90
63289;DHT22;49412;48.162;-1.978;2022-07-12T02:16:04;20.20;99.90
63289;DHT22;49412;48.162;-1.978;2022-07-12T02:18:31;20.10;99.90
63289;DHT22;49412;48.162;-1.978;2022-07-12T02:20:57;20.10;99.90
63289;DHT22;49412;48.162;-1.978;2022-07-12T02:23:22;20.30;99.90
63289;DHT22;49412;48.162;-1.978;2022-07-12T02:25:48;20.40;99.90
63289;DHT22;49412;48.162;-1.978;2022-07-12T02:28:13;20.30;99.90
63289;DHT22;49412;48.162;-1.978;2022-07-12T02:30:39;20.40;99.90
63289;DHT22;49412;48.162;-1.978;2022-07-12T02:33:05;20.40;99.90
63289;DHT22;49412;48.162;-1.978;2022-07-12T02:35:30;20.40;99.90
63289;DHT22;49412;48.162;-1.978;2022-07-12T02:37:56;20.30;99.90
63289;DHT22;49412;48.162;-1.978;2022-07-12T02:40:21;20.30;99.90
63289;DHT22;49412;48.162;-1.978;2022-07-12T02:43:05;20.20;99.90
63289;DHT22;49412;48.162;-1.978;2022-07-12T02:45:31;20.00;99.90
63289;DHT22;49412;48.162;-1.978;2022-07-12T02:47:56;19.90;99.90
63289;DHT22;49412;48.162;-1.978;2022-07-12T02:50:22;19.90;99.90
63289;DHT22;49412;48.162;-1.978;2022-07-12T02:52:47;19.90;99.90
63289;DHT22;49412;48.162;-1.978;2022-07-12T02:55:13;19.80;99.90
63289;DHT22;49412;48.162;-1.978;2022-07-12T02:57:38;19.80;99.90
63289;DHT22;49412;48.162;-1.978;2022-07-12T03:00:04;19.70;99.90
63289;DHT22;49412;48.162;-1.978;2022-07-12T03:02:32;19.40;99.90
63289;DHT22;49412;48.162;-1.978;2022-07-12T03:04:57;19.10;99.90
63289;DHT22;49412;48.162;-1.978;2022-07-12T03:07:23;19.20;99.90
63289;DHT22;49412;48.162;-1.978;2022-07-12T03:09:48;19.30;99.90
63289;DHT22;49412;48.162;-1.978;2022-07-12T03:12:14;19.30;99.90
63289;DHT22;49412;48.162;-1.978;2022-07-12T03:14:40;19.20;99.90
63289;DHT22;49412;48.162;-1.978;2022-07-12T03:17:05;19.30;99.90
63289;DHT22;49412;48.162;-1.978;2022-07-12T03:19:31;19.40;99.90
63289;DHT22;49412;48.162;-1.978;2022-07-12T03:21:56;19.40;99.90
63289;DHT22;49412;48.162;-1.978;2022-07-12T03:24:22;19.60;99.90
63289;DHT22;49412;48.162;-1.978;2022-07-12T03:26:47;19.70;99.90
63289;DHT22;49412;48.162;-1.978;2022-07-12T03:29:13;19.70;99.90
63289;DHT22;49412;48.162;-1.978;2022-07-12T03:31:40;19.80;99.90
63289;DHT22;49412;48.162;-1.978;2022-07-12T03:34:06;19.80;99.90
63289;DHT22;49412;48.162;-1.978;2022-07-12T03:36:31;19.70;99.90
63289;DHT22;49412;48.162;-1.978;2022-07-12T03:38:57;19.60;99.90
63289;DHT22;49412;48.162;-1.978;2022-07-12T03:41:23;19.60;99.90
63289;DHT22;49412;48.162;-1.978;2022-07-12T03:43:49;19.50;99.90
63289;DHT22;49412;48.162;-1.978;2022-07-12T03:46:15;19.50;99.90
63289;DHT22;49412;48.162;-1.978;2022-07-12T03:48:40;19.40;99.90
63289;DHT22;49412;48.162;-1.978;2022-07-12T03:51:06;19.40;99.90
63289;DHT22;49412;48.162;-1.978;2022-07-12T03:53:31;19.30;99.90
63289;DHT22;49412;48.162;-1.978;2022-07-12T03:55:57;19.30;99.90
63289;DHT22;49412;48.162;-1.978;2022-07-12T03:58:22;19.30;99.90
63289;DHT22;49412;48.162;-1.978;2022-07-12T04:00:48;19.30;99.90
63289;DHT22;49412;48.162;-1.978;2022-07-12T04:03:14;19.20;99.90
63289;DHT22;49412;48.162;-1.978;2022-07-12T04:05:39;19.20;99.90
63289;DHT22;49412;48.162;-1.978;2022-07-12T04:08:05;19.10;99.90
63289;DHT22;49412;48.162;-1.978;2022-07-12T04:10:31;19.10;99.90
63289;DHT22;49412;48.162;-1.978;2022-07-12T04:12:57;19.10;99.90
63289;DHT22;49412;48.162;-1.978;2022-07-12T04:15:22;19.10;99.90
63289;DHT22;49412;48.162;-1.978;2022-07-12T04:17:48;19.00;99.90
63289;DHT22;49412;48.162;-1.978;2022-07-12T04:20:13;19.00;99.90
63289;DHT22;49412;48.162;-1.978;2022-07-12T04:22:39;19.00;99.90
63289;DHT22;49412;48.162;-1.978;2022-07-12T04:25:07;19.00;99.90
63289;DHT22;49412;48.162;-1.978;2022-07-12T04:27:33;19.00;99.90
63289;DHT22;49412;48.162;-1.978;2022-07-12T04:29:59;18.90;99.90
63289;DHT22;49412;48.162;-1.978;2022-07-12T04:32:25;18.90;99.90
63289;DHT22;49412;48.162;-1.978;2022-07-12T04:34:50;18.90;99.90
63289;DHT22;49412;48.162;-1.978;2022-07-12T04:37:16;18.90;99.90
63289;DHT22;49412;48.162;-1.978;2022-07-12T04:39:41;19.00;99.90
63289;DHT22;49412;48.162;-1.978;2022-07-12T04:42:07;18.90;99.90
63289;DHT22;49412;48.162;-1.978;2022-07-12T04:44:32;19.00;99.90
63289;DHT22;49412;48.162;-1.978;2022-07-12T04:46:58;19.00;99.90
63289;DHT22;49412;48.162;-1.978;2022-07-12T04:49:23;19.00;99.90
63289;DHT22;49412;48.162;-1.978;2022-07-12T04:51:49;19.00;99.90
63289;DHT22;49412;48.162;-1.978;2022-07-12T04:54:15;19.10;99.90
63289;DHT22;49412;48.162;-1.978;2022-07-12T04:56:40;19.20;99.90
63289;DHT22;49412;48.162;-1.978;2022-07-12T04:59:06;19.20;99.90
63289;DHT22;49412;48.162;-1.978;2022-07-12T05:01:31;19.30;99.90
63289;DHT22;49412;48.162;-1.978;2022-07-12T05:03:58;19.30;99.90
63289;DHT22;49412;48.162;-1.978;2022-07-12T05:06:23;19.30;99.90
63289;DHT22;49412;48.162;-1.978;2022-07-12T05:08:49;19.30;99.90
63289;DHT22;49412;48.162;-1.978;2022-07-12T05:11:15;19.30;99.90
63289;DHT22;49412;48.162;-1.978;2022-07-12T05:13:40;19.40;99.90
63289;DHT22;49412;48.162;-1.978;2022-07-12T05:16:06;19.40;99.90
63289;DHT22;49412;48.162;-1.978;2022-07-12T05:18:33;19.50;99.90
63289;DHT22;49412;48.162;-1.978;2022-07-12T05:20:58;19.50;99.90
63289;DHT22;49412;48.162;-1.978;2022-07-12T05:23:24;19.60;99.90
63289;DHT22;49412;48.162;-1.978;2022-07-12T05:25:49;19.60;99.90
63289;DHT22;49412;48.162;-1.978;2022-07-12T05:28:15;19.70;99.90
63289;DHT22;49412;48.162;-1.978;2022-07-12T05:30:41;19.70;99.90
63289;DHT22;49412;48.162;-1.978;2022-07-12T05:33:07;19.90;99.90
63289;DHT22;49412;48.162;-1.978;2022-07-12T05:35:33;20.00;99.90
63289;DHT22;49412;48.162;-1.978;2022-07-12T05:37:58;20.00;99.90
63289;DHT22;49412;48.162;-1.978;2022-07-12T05:40:24;20.00;99.90
63289;DHT22;49412;48.162;-1.978;2022-07-12T05:42:49;20.10;99.90
63289;DHT22;49412;48.162;-1.978;2022-07-12T05:45:16;20.20;99.90
63289;DHT22;49412;48.162;-1.978;2022-07-12T05:47:42;20.30;99.90
63289;DHT22;49412;48.162;-1.978;2022-07-12T05:50:08;20.40;99.90
63289;DHT22;49412;48.162;-1.978;2022-07-12T05:52:33;20.50;99.90
63289;DHT22;49412;48.162;-1.978;2022-07-12T05:55:18;20.60;99.90
63289;DHT22;49412;48.162;-1.978;2022-07-12T05:57:43;20.80;99.90
63289;DHT22;49412;48.162;-1.978;2022-07-12T06:00:09;20.90;99.90
63289;DHT22;49412;48.162;-1.978;2022-07-12T06:02:35;21.00;99.90
63289;DHT22;49412;48.162;-1.978;2022-07-12T06:05:01;21.00;99.90
63289;DHT22;49412;48.162;-1.978;2022-07-12T06:07:28;21.10;99.90
63289;DHT22;49412;48.162;-1.978;2022-07-12T06:09:54;21.30;99.90
63289;DHT22;49412;48.162;-1.978;2022-07-12T06:12:19;21.40;99.90
63289;DHT22;49412;48.162;-1.978;2022-07-12T06:14:45;21.40;99.90
63289;DHT22;49412;48.162;-1.978;2022-07-12T06:17:11;21.50;99.90
63289;DHT22;49412;48.162;-1.978;2022-07-12T06:19:37;21.70;99.90
63289;DHT22;49412;48.162;-1.978;2022-07-12T06:22:02;21.70;99.90
63289;DHT22;49412;48.162;-1.978;2022-07-12T06:24:28;21.90;99.90
63289;DHT22;49412;48.162;-1.978;2022-07-12T06:26:53;22.00;99.90
63289;DHT22;49412;48.162;-1.978;2022-07-12T06:29:19;22.10;99.90
63289;DHT22;49412;48.162;-1.978;2022-07-12T06:31:45;22.20;99.90
63289;DHT22;49412;48.162;-1.978;2022-07-12T06:34:10;22.30;99.90
63289;DHT22;49412;48.162;-1.978;2022-07-12T06:36:36;22.40;99.90
63289;DHT22;49412;48.162;-1.978;2022-07-12T06:39:01;22.50;99.90
63289;DHT22;49412;48.162;-1.978;2022-07-12T06:41:27;22.70;99.90
63289;DHT22;49412;48.162;-1.978;2022-07-12T06:43:54;22.70;99.90
63289;DHT22;49412;48.162;-1.978;2022-07-12T06:46:20;22.90;99.90
63289;DHT22;49412;48.162;-1.978;2022-07-12T06:48:45;23.00;99.90
63289;DHT22;49412;48.162;-1.978;2022-07-12T06:51:11;23.10;99.90
63289;DHT22;49412;48.162;-1.978;2022-07-12T06:53:37;23.30;99.90
63289;DHT22;49412;48.162;-1.978;2022-07-12T06:56:03;23.40;99.90
63289;DHT22;49412;48.162;-1.978;2022-07-12T06:58:29;23.50;99.90
63289;DHT22;49412;48.162;-1.978;2022-07-12T07:00:54;23.60;99.90
63289;DHT22;49412;48.162;-1.978;2022-07-12T07:03:20;23.60;99.90
63289;DHT22;49412;48.162;-1.978;2022-07-12T07:05:45;23.80;99.90
63289;DHT22;49412;48.162;-1.978;2022-07-12T07:08:11;23.80;99.90
63289;DHT22;49412;48.162;-1.978;2022-07-12T07:10:36;23.80;99.90
63289;DHT22;49412;48.162;-1.978;2022-07-12T07:13:02;23.90;99.90
63289;DHT22;49412;48.162;-1.978;2022-07-12T07:15:28;24.10;99.90
63289;DHT22;49412;48.162;-1.978;2022-07-12T07:17:53;24.20;99.90
63289;DHT22;49412;48.162;-1.978;2022-07-12T07:20:19;24.40;99.90
63289;DHT22;49412;48.162;-1.978;2022-07-12T07:22:44;24.50;99.90
63289;DHT22;49412;48.162;-1.978;2022-07-12T07:25:10;24.70;99.90
63289;DHT22;49412;48.162;-1.978;2022-07-12T07:27:36;24.60;99.90
63289;DHT22;49412;48.162;-1.978;2022-07-12T07:30:03;24.90;99.90
63289;DHT22;49412;48.162;-1.978;2022-07-12T07:32:48;24.90;99.90
63289;DHT22;49412;48.162;-1.978;2022-07-12T07:35:13;25.10;99.90
63289;DHT22;49412;48.162;-1.978;2022-07-12T07:37:39;25.20;99.90
63289;DHT22;49412;48.162;-1.978;2022-07-12T07:40:04;25.20;99.90
63289;DHT22;49412;48.162;-1.978;2022-07-12T07:42:30;25.70;99.90
63289;DHT22;49412;48.162;-1.978;2022-07-12T07:44:56;28.20;98.20
63289;DHT22;49412;48.162;-1.978;2022-07-12T07:47:21;31.00;90.90
63289;DHT22;49412;48.162;-1.978;2022-07-12T07:49:47;32.70;81.80
63289;DHT22;49412;48.162;-1.978;2022-07-12T07:52:12;34.10;77.60
63289;DHT22;49412;48.162;-1.978;2022-07-12T07:54:38;35.10;74.60
63289;DHT22;49412;48.162;-1.978;2022-07-12T07:57:04;35.50;71.80
63289;DHT22;49412;48.162;-1.978;2022-07-12T07:59:29;35.40;70.70
63289;DHT22;49412;48.162;-1.978;2022-07-12T08:01:55;35.60;69.50
63289;DHT22;49412;48.162;-1.978;2022-07-12T08:04:21;35.80;68.90
63289;DHT22;49412;48.162;-1.978;2022-07-12T08:06:47;35.20;68.50
63289;DHT22;49412;48.162;-1.978;2022-07-12T08:09:13;34.20;69.80
63289;DHT22;49412;48.162;-1.978;2022-07-12T08:11:39;34.70;69.50
63289;DHT22;49412;48.162;-1.978;2022-07-12T08:14:05;34.10;69.60
63289;DHT22;49412;48.162;-1.978;2022-07-12T08:16:31;34.10;69.70
63289;DHT22;49412;48.162;-1.978;2022-07-12T08:18:57;34.10;70.00
63289;DHT22;49412;48.162;-1.978;2022-07-12T08:21:23;33.80;70.50
63289;DHT22;49412;48.162;-1.978;2022-07-12T08:23:48;33.50;71.10
63289;DHT22;49412;48.162;-1.978;2022-07-12T08:26:14;33.30;70.70
63289;DHT22;49412;48.162;-1.978;2022-07-12T08:28:40;32.80;71.80
63289;DHT22;49412;48.162;-1.978;2022-07-12T08:31:05;32.90;71.80
63289;DHT22;49412;48.162;-1.978;2022-07-12T08:33:31;32.80;72.10
63289;DHT22;49412;48.162;-1.978;2022-07-12T08:35:57;32.90;71.70
63289;DHT22;49412;48.162;-1.978;2022-07-12T08:38:23;33.00;71.90
63289;DHT22;49412;48.162;-1.978;2022-07-12T08:40:48;33.60;70.90
63289;DHT22;49412;48.162;-1.978;2022-07-12T08:43:14;33.80;70.50
63289;DHT22;49412;48.162;-1.978;2022-07-12T08:45:40;33.30;69.90
63289;DHT22;49412;48.162;-1.978;2022-07-12T08:48:08;33.60;70.70
63289;DHT22;49412;48.162;-1.978;2022-07-12T08:50:34;33.40;69.50
63289;DHT22;49412;48.162;-1.978;2022-07-12T08:53:00;32.70;71.00
63289;DHT22;49412;48.162;-1.978;2022-07-12T08:57:52;33.50;69.30
63289;DHT22;49412;48.162;-1.978;2022-07-12T09:00:19;33.60;69.60
63289;DHT22;49412;48.162;-1.978;2022-07-12T09:02:48;34.10;69.00
63289;DHT22;49412;48.162;-1.978;2022-07-12T09:05:15;34.20;68.80
63289;DHT22;49412;48.162;-1.978;2022-07-12T09:07:41;33.80;68.60
63289;DHT22;49412;48.162;-1.978;2022-07-12T09:10:07;33.90;68.60
63289;DHT22;49412;48.162;-1.978;2022-07-12T09:12:34;34.10;69.10
63289;DHT22;49412;48.162;-1.978;2022-07-12T09:17:59;34.30;67.40
63289;DHT22;49412;48.162;-1.978;2022-07-12T09:20:26;34.20;68.10
63289;DHT22;49412;48.162;-1.978;2022-07-12T09:22:52;35.10;67.40
63289;DHT22;49412;48.162;-1.978;2022-07-12T09:25:18;35.10;66.60
63289;DHT22;49412;48.162;-1.978;2022-07-12T09:27:47;35.30;65.70
63289;DHT22;49412;48.162;-1.978;2022-07-12T09:30:14;34.90;65.00
63289;DHT22;49412;48.162;-1.978;2022-07-12T09:32:51;35.10;64.60
63289;DHT22;49412;48.162;-1.978;2022-07-12T09:35:35;34.50;64.70
63289;DHT22;49412;48.162;-1.978;2022-07-12T09:38:19;35.40;64.30
63289;DHT22;49412;48.162;-1.978;2022-07-12T09:40:44;35.70;64.30
63289;DHT22;49412;48.162;-1.978;2022-07-12T09:43:11;35.50;64.20
63289;DHT22;49412;48.162;-1.978;2022-07-12T09:45:37;35.60;63.60
63289;DHT22;49412;48.162;-1.978;2022-07-12T09:48:04;36.70;62.70
63289;DHT22;49412;48.162;-1.978;2022-07-12T09:50:31;37.20;61.90
63289;DHT22;49412;48.162;-1.978;2022-07-12T09:52:58;37.40;61.40
63289;DHT22;49412;48.162;-1.978;2022-07-12T09:55:25;36.90;61.00
63289;DHT22;49412;48.162;-1.978;2022-07-12T09:57:52;36.60;61.60
63289;DHT22;49412;48.162;-1.978;2022-07-12T10:00:21;36.60;62.50
63289;DHT22;49412;48.162;-1.978;2022-07-12T10:02:46;37.40;60.70
63289;DHT22;49412;48.162;-1.978;2022-07-12T10:05:13;37.20;59.70
63289;DHT22;49412;48.162;-1.978;2022-07-12T10:07:40;37.40;60.30
63289;DHT22;49412;48.162;-1.978;2022-07-12T10:10:06;37.40;60.20
63289;DHT22;49412;48.162;-1.978;2022-07-12T10:12:32;38.30;60.30
63289;DHT22;49412;48.162;-1.978;2022-07-12T10:15:02;38.90;59.80
63289;DHT22;49412;48.162;-1.978;2022-07-12T10:17:27;38.80;58.90
63289;DHT22;49412;48.162;-1.978;2022-07-12T10:20:14;37.90;59.70
63289;DHT22;49412;48.162;-1.978;2022-07-12T10:22:40;38.00;59.80
63289;DHT22;49412;48.162;-1.978;2022-07-12T10:25:15;38.50;59.10
63289;DHT22;49412;48.162;-1.978;2022-07-12T10:27:54;38.20;59.00
63289;DHT22;49412;48.162;-1.978;2022-07-12T10:30:21;38.80;58.30
63289;DHT22;49412;48.162;-1.978;2022-07-12T10:32:47;39.70;57.30
63289;DHT22;49412;48.162;-1.978;2022-07-12T10:35:17;40.50;58.30
63289;DHT22;49412;48.162;-1.978;2022-07-12T10:40:28;41.10;58.40
63289;DHT22;49412;48.162;-1.978;2022-07-12T10:45:48;40.30;52.50
63289;DHT22;49412;48.162;-1.978;2022-07-12T10:53:28;40.50;49.90
63289;DHT22;49412;48.162;-1.978;2022-07-12T11:01:02;41.10;47.90
63289;DHT22;49412;48.162;-1.978;2022-07-12T11:06:02;40.40;47.70
63289;DHT22;49412;48.162;-1.978;2022-07-12T11:08:31;40.90;48.10
63289;DHT22;49412;48.162;-1.978;2022-07-12T11:10:59;41.80;47.00
63289;DHT22;49412;48.162;-1.978;2022-07-12T11:13:25;42.10;47.20
63289;DHT22;49412;48.162;-1.978;2022-07-12T11:16:00;42.20;46.90
63289;DHT22;49412;48.162;-1.978;2022-07-12T11:18:32;41.50;46.10
63289;DHT22;49412;48.162;-1.978;2022-07-12T11:20:59;41.70;44.80
63289;DHT22;49412;48.162;-1.978;2022-07-12T11:23:25;41.60;44.70
63289;DHT22;49412;48.162;-1.978;2022-07-12T11:25:56;41.30;45.20
63289;DHT22;49412;48.162;-1.978;2022-07-12T11:28:29;41.80;45.20
63289;DHT22;49412;48.162;-1.978;2022-07-12T11:31:08;42.10;45.20
63289;DHT22;49412;48.162;-1.978;2022-07-12T11:33:35;42.90;44.20
63289;DHT22;49412;48.162;-1.978;2022-07-12T11:36:05;43.00;44.50
63289;DHT22;49412;48.162;-1.978;2022-07-12T11:38:31;43.10;44.40
63289;DHT22;49412;48.162;-1.978;2022-07-12T11:40:57;43.30;44.10
63289;DHT22;49412;48.162;-1.978;2022-07-12T11:43:24;43.00;43.50
63289;DHT22;49412;48.162;-1.978;2022-07-12T11:45:51;42.20;43.80
63289;DHT22;49412;48.162;-1.978;2022-07-12T11:48:16;41.80;43.40
63289;DHT22;49412;48.162;-1.978;2022-07-12T11:50:42;41.10;43.10
63289;DHT22;49412;48.162;-1.978;2022-07-12T11:53:16;40.60;43.30
63289;DHT22;49412;48.162;-1.978;2022-07-12T11:56:02;40.90;43.30
63289;DHT22;49412;48.162;-1.978;2022-07-12T11:58:28;42.10;43.40
63289;DHT22;49412;48.162;-1.978;2022-07-12T12:00:54;43.70;42.60
63289;DHT22;49412;48.162;-1.978;2022-07-12T12:03:20;43.30;42.70
63289;DHT22;49412;48.162;-1.978;2022-07-12T12:05:47;43.00;43.00
63289;DHT22;49412;48.162;-1.978;2022-07-12T12:08:13;43.10;43.10
63289;DHT22;49412;48.162;-1.978;2022-07-12T12:10:40;43.10;43.30
63289;DHT22;49412;48.162;-1.978;2022-07-12T12:13:12;42.10;43.00
63289;DHT22;49412;48.162;-1.978;2022-07-12T12:15:38;42.00;42.90
63289;DHT22;49412;48.162;-1.978;2022-07-12T12:18:07;41.60;42.80
63289;DHT22;49412;48.162;-1.978;2022-07-12T12:23:02;41.10;43.90
63289;DHT22;49412;48.162;-1.978;2022-07-12T12:25:29;41.30;43.20
63289;DHT22;49412;48.162;-1.978;2022-07-12T12:27:56;41.30;42.70
63289;DHT22;49412;48.162;-1.978;2022-07-12T12:30:22;41.90;42.10
63289;DHT22;49412;48.162;-1.978;2022-07-12T12:32:55;41.60;42.70
63289;DHT22;49412;48.162;-1.978;2022-07-12T12:35:22;42.20;42.20
63289;DHT22;49412;48.162;-1.978;2022-07-12T12:37:55;42.50;42.40
63289;DHT22;49412;48.162;-1.978;2022-07-12T12:40:22;43.20;41.50
63289;DHT22;49412;48.162;-1.978;2022-07-12T12:42:48;43.90;40.90
63289;DHT22;49412;48.162;-1.978;2022-07-12T12:45:22;43.20;40.20
63289;DHT22;49412;48.162;-1.978;2022-07-12T12:47:58;42.40;41.00
63289;DHT22;49412;48.162;-1.978;2022-07-12T12:50:37;41.90;41.90
63289;DHT22;49412;48.162;-1.978;2022-07-12T12:53:06;41.70;41.60
63289;DHT22;49412;48.162;-1.978;2022-07-12T12:55:32;42.00;41.60
63289;DHT22;49412;48.162;-1.978;2022-07-12T12:57:58;43.00;41.40
63289;DHT22;49412;48.162;-1.978;2022-07-12T13:00:23;44.00;40.50
63289;DHT22;49412;48.162;-1.978;2022-07-12T13:02:49;44.80;40.00
63289;DHT22;49412;48.162;-1.978;2022-07-12T13:05:15;44.90;41.10
63289;DHT22;49412;48.162;-1.978;2022-07-12T13:07:40;43.70;42.00
63289;DHT22;49412;48.162;-1.978;2022-07-12T13:10:06;42.40;42.40
63289;DHT22;49412;48.162;-1.978;2022-07-12T13:12:32;42.50;42.10
63289;DHT22;49412;48.162;-1.978;2022-07-12T13:14:59;42.50;42.30
63289;DHT22;49412;48.162;-1.978;2022-07-12T13:17:24;42.60;42.00
63289;DHT22;49412;48.162;-1.978;2022-07-12T13:19:50;43.20;41.80
63289;DHT22;49412;48.162;-1.978;2022-07-12T13:22:15;43.60;42.50
63289;DHT22;49412;48.162;-1.978;2022-07-12T13:24:41;42.60;42.20
63289;DHT22;49412;48.162;-1.978;2022-07-12T13:27:07;42.90;41.60
63289;DHT22;49412;48.162;-1.978;2022-07-12T13:29:32;40.80;42.70
63289;DHT22;49412;48.162;-1.978;2022-07-12T13:31:58;41.20;42.80
63289;DHT22;49412;48.162;-1.978;2022-07-12T13:34:24;41.60;43.10
63289;DHT22;49412;48.162;-1.978;2022-07-12T13:36:50;42.40;41.90
63289;DHT22;49412;48.162;-1.978;2022-07-12T13:39:16;43.10;41.50
63289;DHT22;49412;48.162;-1.978;2022-07-12T13:42:00;43.20;41.00
63289;DHT22;49412;48.162;-1.978;2022-07-12T13:44:26;44.00;41.20
63289;DHT22;49412;48.162;-1.978;2022-07-12T13:46:52;45.00;41.50
63289;DHT22;49412;48.162;-1.978;2022-07-12T13:49:17;43.70;41.60
63289;DHT22;49412;48.162;-1.978;2022-07-12T13:51:43;44.00;42.70
63289;DHT22;49412;48.162;-1.978;2022-07-12T13:54:09;44.50;42.80
63289;DHT22;49412;48.162;-1.978;2022-07-12T13:56:34;44.80;41.00
63289;DHT22;49412;48.162;-1.978;2022-07-12T13:59:00;45.80;40.40
63289;DHT22;49412;48.162;-1.978;2022-07-12T14:01:26;46.40;40.50
63289;DHT22;49412;48.162;-1.978;2022-07-12T14:03:51;46.40;40.70
63289;DHT22;49412;48.162;-1.978;2022-07-12T14:06:17;46.10;40.20
63289;DHT22;49412;48.162;-1.978;2022-07-12T14:08:42;45.20;40.30
63289;DHT22;49412;48.162;-1.978;2022-07-12T14:11:08;45.60;40.20
63289;DHT22;49412;48.162;-1.978;2022-07-12T14:13:34;45.50;39.40
63289;DHT22;49412;48.162;-1.978;2022-07-12T14:16:00;45.30;39.30
63289;DHT22;49412;48.162;-1.978;2022-07-12T14:18:25;44.40;39.70
63289;DHT22;49412;48.162;-1.978;2022-07-12T14:20:51;44.00;39.20
63289;DHT22;49412;48.162;-1.978;2022-07-12T14:23:16;44.30;37.80
63289;DHT22;49412;48.162;-1.978;2022-07-12T14:25:42;44.50;37.50
63289;DHT22;49412;48.162;-1.978;2022-07-12T14:28:08;44.40;37.00
63289;DHT22;49412;48.162;-1.978;2022-07-12T14:30:33;44.10;37.40
63289;DHT22;49412;48.162;-1.978;2022-07-12T14:33:00;44.40;36.80
63289;DHT22;49412;48.162;-1.978;2022-07-12T14:35:25;44.00;36.50
63289;DHT22;49412;48.162;-1.978;2022-07-12T14:37:51;43.90;36.30
63289;DHT22;49412;48.162;-1.978;2022-07-12T14:40:16;44.80;36.50
63289;DHT22;49412;48.162;-1.978;2022-07-12T14:42:42;45.10;35.70
63289;DHT22;49412;48.162;-1.978;2022-07-12T14:45:09;45.30;35.80
63289;DHT22;49412;48.162;-1.978;2022-07-12T14:47:35;46.00;35.80
63289;DHT22;49412;48.162;-1.978;2022-07-12T14:50:01;45.40;35.70
63289;DHT22;49412;48.162;-1.978;2022-07-12T14:52:30;45.20;35.50
63289;DHT22;49412;48.162;-1.978;2022-07-12T14:54:56;45.90;35.80
63289;DHT22;49412;48.162;-1.978;2022-07-12T14:57:21;46.70;35.60
63289;DHT22;49412;48.162;-1.978;2022-07-12T14:59:47;45.60;36.20
63289;DHT22;49412;48.162;-1.978;2022-07-12T15:02:12;46.60;35.90
63289;DHT22;49412;48.162;-1.978;2022-07-12T15:04:38;48.30;35.30
63289;DHT22;49412;48.162;-1.978;2022-07-12T15:07:03;48.70;35.10
63289;DHT22;49412;48.162;-1.978;2022-07-12T15:09:29;48.10;35.00
63289;DHT22;49412;48.162;-1.978;2022-07-12T15:11:55;48.00;35.20
63289;DHT22;49412;48.162;-1.978;2022-07-12T15:14:21;48.90;35.10
63289;DHT22;49412;48.162;-1.978;2022-07-12T15:16:46;49.10;34.70
63289;DHT22;49412;48.162;-1.978;2022-07-12T15:19:13;49.90;34.60
63289;DHT22;49412;48.162;-1.978;2022-07-12T15:21:40;51.10;34.60
63289;DHT22;49412;48.162;-1.978;2022-07-12T15:24:06;50.20;34.20
63289;DHT22;49412;48.162;-1.978;2022-07-12T15:26:31;50.20;34.10
63289;DHT22;49412;48.162;-1.978;2022-07-12T15:28:58;50.30;34.00
63289;DHT22;49412;48.162;-1.978;2022-07-12T15:31:24;50.50;33.90
63289;DHT22;49412;48.162;-1.978;2022-07-12T15:33:50;50.20;33.90
63289;DHT22;49412;48.162;-1.978;2022-07-12T15:36:16;50.50;33.90
63289;DHT22;49412;48.162;-1.978;2022-07-12T15:38:42;49.90;33.80